WetterOnline ( http://www.wetteronline.de )

Wetter aktuell Ettal

Aktuelles Wetter: Garmisch-Partenkirchen (719m)

6-stündlich | Neueste Meldungen
Ortszeit Temperatur Wetter
Mi, 26.09. 8:00 0.7° C wolkig
Mi, 26.09. 2:00 0.9° C wolkenlos
Di, 25.09. 20:00 7.6° C wolkenlos
Di, 25.09. 14:00 12.0° C wolkenlos
Di, 25.09. 8:00 1.3° C wolkenlos
Di, 25.09. 2:00 3.3° C wolkig
Mo, 24.09. 20:00 6.3° C leicht bewölkt
Mo, 24.09. 14:00 9.2° C leichter Regen
Ortszeit Temperatur Wetter
Mi, 26.09. 8:00 0.7° C wolkig
Mi, 26.09. 7:50 0.7° C wolkig
Mi, 26.09. 7:40 0.6° C wolkig
Mi, 26.09. 7:30 0.2° C leicht bewölkt
Mi, 26.09. 7:20 0.2° C leicht bewölkt
Mi, 26.09. 7:10 -0.0° C fast wolkenlos
Mi, 26.09. 7:00 0.1° C wolkenlos
Mi, 26.09. 6:30 -0.1° C wolkenlos
Mi, 26.09. 6:00 -0.0° C fast wolkenlos
Mi, 26.09. 5:30 0.2° C wolkenlos
Mi, 26.09. 5:00 0.2° C wolkenlos
Ortszeit Relative Feuchte Sichtweite
Mi, 26.09. 8:00 97% 50 km
Mi, 26.09. 2:00 96% 50 km
Di, 25.09. 20:00 71% 65 km
Di, 25.09. 14:00 56% 60 km
Di, 25.09. 8:00 96% 40 km
Di, 25.09. 2:00 95% 45 km
Mo, 24.09. 20:00 88% 65 km
Mo, 24.09. 14:00 80% 30 km
Ortszeit Relative Feuchte Sichtweite
Mi, 26.09. 8:00 97% 50 km
Mi, 26.09. 7:50 97% -
Mi, 26.09. 7:40 96% -
Mi, 26.09. 7:30 96% 35 km
Mi, 26.09. 7:20 96% -
Mi, 26.09. 7:10 96% -
Mi, 26.09. 7:00 96% 50 km
Mi, 26.09. 6:30 96% 40 km
Mi, 26.09. 6:00 96% 29 km
Mi, 26.09. 5:30 96% 35 km
Mi, 26.09. 5:00 96% 50 km
Ortszeit Niederschlagsmenge Niederschlagsart
Mi, 26.09. 8:00 0.0 l/m2 in 12 Std. -
Mi, 26.09. 2:00 0.0 l/m2 in 6 Std. -
Di, 25.09. 20:00 0.0 l/m2 in 12 Std. -
Di, 25.09. 14:00 0.0 l/m2 in 6 Std. -
Di, 25.09. 8:00 0.0 l/m2 in 12 Std. -
Di, 25.09. 2:00 0.0 l/m2 in 6 Std. -
Mo, 24.09. 20:00 2 l/m2 in 12 Std. Regen
Mo, 24.09. 14:00 2 l/m2 in 6 Std. Regen
Ortszeit Niederschlagsmenge Niederschlagsart
Mi, 26.09. 8:00 0.0 l/m2 in 1 Std. -
Mi, 26.09. 7:50 keine Meldung -
Mi, 26.09. 7:40 keine Meldung -
Mi, 26.09. 7:30 0.0 l/m2 in 1 Std. -
Mi, 26.09. 7:20 keine Meldung -
Mi, 26.09. 7:10 keine Meldung -
Mi, 26.09. 7:00 0.0 l/m2 in 1 Std. -
Mi, 26.09. 6:30 0.0 l/m2 in 1 Std. -
Mi, 26.09. 6:00 0.0 l/m2 in 1 Std. -
Mi, 26.09. 5:30 0.0 l/m2 in 1 Std. -
Mi, 26.09. 5:00 0.0 l/m2 in 1 Std. -
Ortszeit Stärke Spitze Richtung
km/h Bft. km/h Grad Sektor
Mi, 26.09. 8:00 4 1 11 230° SW
Mi, 26.09. 2:00 2 1 11 220° SW
Di, 25.09. 20:00 7 2 32 100° O
Di, 25.09. 14:00 13 3 30 40° NO
Di, 25.09. 8:00 4 1 11 210° SW
Di, 25.09. 2:00 4 1 11 240° SW
Mo, 24.09. 20:00 4 1 22 220° SW
Mo, 24.09. 14:00 4 1 22 170° S
Ortszeit Stärke Spitze Richtung
km/h Bft. km/h Grad Sektor
Mi, 26.09. 8:00 4 1 7 230° SW
Mi, 26.09. 7:50 4 1 - 230° SW
Mi, 26.09. 7:40 4 1 - 260° W
Mi, 26.09. 7:30 2 1 7 270° W
Mi, 26.09. 7:20 2 1 - 270° W
Mi, 26.09. 7:10 4 1 - 220° SW
Mi, 26.09. 7:00 4 1 7 250° W
Mi, 26.09. 6:30 4 1 7 240° SW
Mi, 26.09. 6:00 4 1 11 240° SW
Mi, 26.09. 5:30 4 1 7 230° SW
Mi, 26.09. 5:00 4 1 7 270° W
Ortszeit Untergrenze Bedeckung Gattung
total tief tief mittel hoch
Mi, 26.09. 8:00 7500 m 8/8 0/8 - - -
Mi, 26.09. 2:00 - 0/8 0/8 - - -
Di, 25.09. 20:00 - 0/8 0/8 - - -
Di, 25.09. 14:00 - 0/8 0/8 - - -
Di, 25.09. 8:00 - 0/8 0/8 - - -
Di, 25.09. 2:00 1800 m 5/8 5/8 - - -
Mo, 24.09. 20:00 1500 m 2/8 1/8 - - -
Mo, 24.09. 14:00 510 m 8/8 8/8 - - -
Ortszeit Bedeckungsgrad in Achtel und Wolkenuntergrenze
Mi, 26.09. 8:00 7(7500m) 8(8100m) 8(9000m)
Mi, 26.09. 7:50 7(7500m) 8(8100m) 8(9000m)
Mi, 26.09. 7:40 6(7500m) 7(8100m) 7(9000m)
Mi, 26.09. 7:30 3(8100m) 6(8100m)
Mi, 26.09. 7:20 3(8100m)
Mi, 26.09. 7:10 1(8100m)
Mi, 26.09. 7:00 keine Wolken
Mi, 26.09. 6:30 keine Wolken
Mi, 26.09. 6:00 1(9000m)
Mi, 26.09. 5:30 keine Wolken
Mi, 26.09. 5:00 keine Wolken
Ortszeit Luftdruck NN (hPa) Tendenz (hPa in 3 Std.)
Mi, 26.09. 8:00 1038 0,0
Mi, 26.09. 2:00 1040 - 1,1
Di, 25.09. 20:00 1037 + 1,1
Di, 25.09. 14:00 1036 - 1,2
Di, 25.09. 8:00 1039 + 0,2
Di, 25.09. 2:00 1038 + 0,4
Mo, 24.09. 20:00 1035 + 1,6
Mo, 24.09. 14:00 1033 + 0,6
Ortszeit Luftdruck NN (hPa) Tendenz (hPa in 3 Std.)
Mi, 26.09. 8:00 1038 0,0
Mi, 26.09. 7:50 1038 keine Meldung
Mi, 26.09. 7:40 1037 keine Meldung
Mi, 26.09. 7:30 1038 - 0,1
Mi, 26.09. 7:20 1038 keine Meldung
Mi, 26.09. 7:10 1038 keine Meldung
Mi, 26.09. 7:00 1038 - 0,8
Mi, 26.09. 6:30 1038 - 1,2
Mi, 26.09. 6:00 1038 - 1,2
Mi, 26.09. 5:30 1038 - 1,4
Mi, 26.09. 5:00 1038 - 2,0
Ortszeit Schneehöhe (cm)
Mi, 26.09. 8:00 -
Mi, 26.09. 2:00 -
Di, 25.09. 20:00 -
Di, 25.09. 14:00 -
Di, 25.09. 8:00 -
Di, 25.09. 2:00 -
Mo, 24.09. 20:00 -
Mo, 24.09. 14:00 -
Ortszeit Schneehöhe (cm)
Mi, 26.09. 8:00 -
Mi, 26.09. 7:50 -
Mi, 26.09. 7:40 -
Mi, 26.09. 7:30 -
Mi, 26.09. 7:20 -
Mi, 26.09. 7:10 -
Mi, 26.09. 7:00 -
Mi, 26.09. 6:30 -
Mi, 26.09. 6:00 -
Mi, 26.09. 5:30 -
Mi, 26.09. 5:00 -
Link zu dieser Seite / Seite empfehlen

Das Wetter in ...